首页
METAR-TAF:

METAR-TAF

机场 :

奧爾德尼島,

纬度: 49-43N, 经度: 002-12W, 海拔: 71米

当前天气观测

该预报发布于2小时和38分钟前的18:20 UTC
风速24节,风向西转西北
温度 10°C
湿度 66%
气压 1003 hPa
能见度10公里或以上
散云层高于3400英尺
散云层高于4400英尺

METAR: EGJA 121820Z 30024KT 9999 SCT034 SCT044 10/04 Q1003

时间: 20:58 (20:58 UTC)

预报

该预报发布于7小时和2分钟前的13:56 UTC
预报有效从12日的 15点(UTC)到 13日的 00点(UTC)
风速20节,风向西北
能见度10公里或以上
少量云层高于2000英尺, 积雨云.
散云层高于3000英尺
短暂存在
从 12日的 15点(UTC)到 12日的 20点(UTC)
风速24节,风向西北,有时为36节阵风
短暂存在
从 12日的 15点(UTC)到 13日的 00点(UTC)
能見度: 8000
多云层高于1800英尺
阵雨
几率 30% :
短暂存在
从 12日的 15点(UTC)到 12日的 19点(UTC)
能見度: 4000
多云层高于1500英尺, 积雨云.
大阵雨, 小冰雹或雪球

TAF: EGJA 121356Z 1215/1300 31020KT 9999 FEW020CB SCT030 TEMPO 1215/1220 31024G36KT TEMPO 1215/1300 8000 SHRA BKN018 PROB30 TEMPO 1215/1219 4000 +SHRAGS BKN015CB

超过4000个机场的气象观测和天气预报(METAR&TAF报告)。

可查询的气象台以黄色和红色小点在地图上表示。

将鼠标移到小点上方,可查看气象台名称。

然后点击查看天气观测和预报。

如需切换地图:点击带黑十字的绿色按钮放大地图;点击带横线的绿色按钮缩小地图;或者点击绿色箭头查看邻近地区的地图。


METAR-TAF: